KAPC/APC METAR and TAF weather

Enter ICAO airport designator
Station Type Date Time Source
KAPC METAR 2019/08/19 22:54 UTC NOAA

KAPC 192254Z 20015KT 10SM CLR 21/14 A2995 RMK AO2 SLP132 T02110144


Station Type Date Time Source
KAPC Decoded METAR 2019/08/19 22:54 UTC NOAA

NAPA COUNTY AIRPORT, CA, United States (KAPC) 38-12N 122-17W 13M
Aug 19, 2019 - 06:54 PM EDT / 2019.08.19 2254 UTC
Wind: from the SSW (200 degrees) at 17 MPH (15 KT):0
Visibility: 10 mile(s):0
Sky conditions: clear
Temperature: 70.0 F (21.1 C)
Dew Point: 57.9 F (14.4 C)
Relative Humidity: 65%
Pressure (altimeter): 29.95 in. Hg (1014 hPa)
ob: KAPC 192254Z 20015KT 10SM CLR 21/14 A2995 RMK AO2 SLP132 T02110144
cycle: 23

Station Type Date Time Source
KAPC TAF 2016/02/08 18:39 UTC NOAA

TAF KAPC 081738Z 0818/0918 08008KT P6SM SKC
FM081900 09012KT P6SM SKC
FM090000 07007KT P6SM SKC
FM090600 04004KT P6SM SKC

Example: see airport list